West Point, Arkansas
Current Conditions -  °F | °C
As of 5:56 AM on Sunday 25 Jan 2015 (Local Time) from KSRC Reporting Station
Broken Clouds Broken Clouds  
Wind Chill: 37°   Ceiling: 10000
Heat Index: 42°   Visibility: 10mi
Dew Point: 35°   Wind: 8mph
Humidity: 76%   Direction: 210°SSW
Pressure: 29.77"   Gusts: NA
Location:  35.21°N, 91.61°W
Report Text: KSRC 251156Z AUTO 21007KT 10SM BKN100 06/02 A2977 RMK AO2 SLP087 T00560017 10061 20022 58023 TSNO
Loading
Personal Weather Stations






























Interactive Weather Map New forecast layout! Learn more

10-Day Weather Forecast

Advertisements
Track Severe Weather on mobile